sensor_id;sensor_type;location;lat;lon;timestamp;temperature;humidity
16297;DHT22;8256;56.144;13.394;2022-09-13T00:02:08;15.50;99.90
16297;DHT22;8256;56.144;13.394;2022-09-13T00:04:54;15.50;99.90
16297;DHT22;8256;56.144;13.394;2022-09-13T00:07:40;15.50;99.90
16297;DHT22;8256;56.144;13.394;2022-09-13T00:10:26;15.50;99.90
16297;DHT22;8256;56.144;13.394;2022-09-13T00:13:12;15.50;99.90
16297;DHT22;8256;56.144;13.394;2022-09-13T00:15:58;15.50;99.90
16297;DHT22;8256;56.144;13.394;2022-09-13T00:18:47;15.50;99.90
16297;DHT22;8256;56.144;13.394;2022-09-13T00:21:33;15.50;99.90
16297;DHT22;8256;56.144;13.394;2022-09-13T00:24:19;15.50;99.90
16297;DHT22;8256;56.144;13.394;2022-09-13T00:27:05;15.50;99.90
16297;DHT22;8256;56.144;13.394;2022-09-13T00:29:50;15.50;99.90
16297;DHT22;8256;56.144;13.394;2022-09-13T00:32:36;15.50;99.90
16297;DHT22;8256;56.144;13.394;2022-09-13T00:35:22;15.50;99.90
16297;DHT22;8256;56.144;13.394;2022-09-13T00:38:08;15.50;99.90
16297;DHT22;8256;56.144;13.394;2022-09-13T00:40:54;15.50;99.90
16297;DHT22;8256;56.144;13.394;2022-09-13T00:44:01;15.50;99.90
16297;DHT22;8256;56.144;13.394;2022-09-13T00:46:47;15.50;99.90
16297;DHT22;8256;56.144;13.394;2022-09-13T00:49:35;15.50;99.90
16297;DHT22;8256;56.144;13.394;2022-09-13T00:52:23;15.50;99.90
16297;DHT22;8256;56.144;13.394;2022-09-13T00:55:43;15.50;99.90
16297;DHT22;8256;56.144;13.394;2022-09-13T00:58:26;15.50;99.90
16297;DHT22;8256;56.144;13.394;2022-09-13T01:01:14;15.50;99.90
16297;DHT22;8256;56.144;13.394;2022-09-13T01:04:00;15.60;99.90
16297;DHT22;8256;56.144;13.394;2022-09-13T01:06:47;15.60;99.90
16297;DHT22;8256;56.144;13.394;2022-09-13T01:09:34;15.50;99.90
16297;DHT22;8256;56.144;13.394;2022-09-13T01:12:28;15.50;99.90
16297;DHT22;8256;56.144;13.394;2022-09-13T01:15:16;15.50;99.90
16297;DHT22;8256;56.144;13.394;2022-09-13T01:18:02;15.50;99.90
16297;DHT22;8256;56.144;13.394;2022-09-13T01:32:59;15.50;99.90
16297;DHT22;8256;56.144;13.394;2022-09-13T01:44:55;15.50;99.90
16297;DHT22;8256;56.144;13.394;2022-09-13T01:47:48;15.50;99.90
16297;DHT22;8256;56.144;13.394;2022-09-13T01:50:39;15.50;99.90
16297;DHT22;8256;56.144;13.394;2022-09-13T01:53:39;15.50;99.90
16297;DHT22;8256;56.144;13.394;2022-09-13T01:56:32;15.50;99.90
16297;DHT22;8256;56.144;13.394;2022-09-13T01:59:37;15.40;99.90
16297;DHT22;8256;56.144;13.394;2022-09-13T02:08:06;15.40;99.90
16297;DHT22;8256;56.144;13.394;2022-09-13T02:10:56;15.50;99.90
16297;DHT22;8256;56.144;13.394;2022-09-13T02:14:30;15.40;99.90
16297;DHT22;8256;56.144;13.394;2022-09-13T02:16:56;15.40;99.90
16297;DHT22;8256;56.144;13.394;2022-09-13T02:22:31;15.40;99.90
16297;DHT22;8256;56.144;13.394;2022-09-13T02:25:17;15.40;99.90
16297;DHT22;8256;56.144;13.394;2022-09-13T02:28:04;15.40;99.90
16297;DHT22;8256;56.144;13.394;2022-09-13T02:30:52;15.40;99.90
16297;DHT22;8256;56.144;13.394;2022-09-13T02:33:41;15.50;99.90
16297;DHT22;8256;56.144;13.394;2022-09-13T02:36:29;15.40;99.90
16297;DHT22;8256;56.144;13.394;2022-09-13T02:39:16;15.40;99.90
16297;DHT22;8256;56.144;13.394;2022-09-13T02:42:06;15.40;99.90
16297;DHT22;8256;56.144;13.394;2022-09-13T02:44:53;15.40;99.90
16297;DHT22;8256;56.144;13.394;2022-09-13T02:47:52;15.40;99.90
16297;DHT22;8256;56.144;13.394;2022-09-13T02:50:48;15.30;99.90
16297;DHT22;8256;56.144;13.394;2022-09-13T02:53:41;15.40;99.90
16297;DHT22;8256;56.144;13.394;2022-09-13T02:56:50;15.30;99.90
16297;DHT22;8256;56.144;13.394;2022-09-13T02:59:35;15.40;99.90
16297;DHT22;8256;56.144;13.394;2022-09-13T03:02:21;15.30;99.90
16297;DHT22;8256;56.144;13.394;2022-09-13T03:05:08;15.40;99.90
16297;DHT22;8256;56.144;13.394;2022-09-13T03:07:54;15.30;99.90
16297;DHT22;8256;56.144;13.394;2022-09-13T03:20:23;15.30;99.90
16297;DHT22;8256;56.144;13.394;2022-09-13T03:25:57;15.30;99.90
16297;DHT22;8256;56.144;13.394;2022-09-13T03:28:49;15.30;99.90
16297;DHT22;8256;56.144;13.394;2022-09-13T03:31:41;15.40;99.90
16297;DHT22;8256;56.144;13.394;2022-09-13T03:34:32;15.40;99.90
16297;DHT22;8256;56.144;13.394;2022-09-13T03:37:22;15.30;99.90
16297;DHT22;8256;56.144;13.394;2022-09-13T03:40:11;15.40;99.90
16297;DHT22;8256;56.144;13.394;2022-09-13T03:43:07;15.40;99.90
16297;DHT22;8256;56.144;13.394;2022-09-13T03:45:57;15.40;99.90
16297;DHT22;8256;56.144;13.394;2022-09-13T03:48:44;15.40;99.90
16297;DHT22;8256;56.144;13.394;2022-09-13T03:51:30;15.40;99.90
16297;DHT22;8256;56.144;13.394;2022-09-13T03:54:18;15.40;99.90
16297;DHT22;8256;56.144;13.394;2022-09-13T03:59:52;15.40;99.90
16297;DHT22;8256;56.144;13.394;2022-09-13T04:02:38;15.40;99.90
16297;DHT22;8256;56.144;13.394;2022-09-13T04:05:24;15.50;99.90
16297;DHT22;8256;56.144;13.394;2022-09-13T04:08:10;15.40;99.90
16297;DHT22;8256;56.144;13.394;2022-09-13T04:10:56;15.40;99.90
16297;DHT22;8256;56.144;13.394;2022-09-13T04:13:41;15.40;99.90
16297;DHT22;8256;56.144;13.394;2022-09-13T04:16:27;15.50;99.90
16297;DHT22;8256;56.144;13.394;2022-09-13T04:19:13;15.50;99.90
16297;DHT22;8256;56.144;13.394;2022-09-13T04:21:59;15.50;99.90
16297;DHT22;8256;56.144;13.394;2022-09-13T04:24:45;15.40;99.90
16297;DHT22;8256;56.144;13.394;2022-09-13T04:27:31;15.50;99.90
16297;DHT22;8256;56.144;13.394;2022-09-13T04:30:16;15.50;99.90
16297;DHT22;8256;56.144;13.394;2022-09-13T04:33:02;15.50;99.90
16297;DHT22;8256;56.144;13.394;2022-09-13T04:35:52;15.50;99.90
16297;DHT22;8256;56.144;13.394;2022-09-13T04:38:38;15.50;99.90
16297;DHT22;8256;56.144;13.394;2022-09-13T04:41:24;15.50;99.90
16297;DHT22;8256;56.144;13.394;2022-09-13T04:44:10;15.50;99.90
16297;DHT22;8256;56.144;13.394;2022-09-13T04:46:56;15.50;99.90
16297;DHT22;8256;56.144;13.394;2022-09-13T04:49:42;15.50;99.90
16297;DHT22;8256;56.144;13.394;2022-09-13T04:52:27;15.50;99.90
16297;DHT22;8256;56.144;13.394;2022-09-13T04:55:13;15.50;99.90
16297;DHT22;8256;56.144;13.394;2022-09-13T04:57:59;15.50;99.90
16297;DHT22;8256;56.144;13.394;2022-09-13T05:00:45;15.50;99.90
16297;DHT22;8256;56.144;13.394;2022-09-13T05:03:31;15.50;99.90
16297;DHT22;8256;56.144;13.394;2022-09-13T05:06:17;15.50;99.90
16297;DHT22;8256;56.144;13.394;2022-09-13T05:09:03;15.60;99.90
16297;DHT22;8256;56.144;13.394;2022-09-13T05:11:50;15.50;99.90
16297;DHT22;8256;56.144;13.394;2022-09-13T05:14:35;15.50;99.90
16297;DHT22;8256;56.144;13.394;2022-09-13T05:17:21;15.50;99.90
16297;DHT22;8256;56.144;13.394;2022-09-13T05:20:07;15.50;99.90
16297;DHT22;8256;56.144;13.394;2022-09-13T05:22:54;15.60;99.90
16297;DHT22;8256;56.144;13.394;2022-09-13T05:25:40;15.60;99.90
16297;DHT22;8256;56.144;13.394;2022-09-13T05:28:26;15.60;99.90
16297;DHT22;8256;56.144;13.394;2022-09-13T05:31:22;15.60;99.90
16297;DHT22;8256;56.144;13.394;2022-09-13T05:34:10;15.70;99.90
16297;DHT22;8256;56.144;13.394;2022-09-13T05:36:56;15.70;99.90
16297;DHT22;8256;56.144;13.394;2022-09-13T05:39:42;15.70;99.90
16297;DHT22;8256;56.144;13.394;2022-09-13T05:42:28;15.80;99.90
16297;DHT22;8256;56.144;13.394;2022-09-13T05:45:14;15.80;99.90
16297;DHT22;8256;56.144;13.394;2022-09-13T05:48:00;15.80;99.90
16297;DHT22;8256;56.144;13.394;2022-09-13T05:50:46;15.80;99.90
16297;DHT22;8256;56.144;13.394;2022-09-13T05:53:32;15.80;99.90
16297;DHT22;8256;56.144;13.394;2022-09-13T05:56:20;15.80;99.90
16297;DHT22;8256;56.144;13.394;2022-09-13T05:59:06;15.80;99.90
16297;DHT22;8256;56.144;13.394;2022-09-13T06:01:53;15.80;99.90
16297;DHT22;8256;56.144;13.394;2022-09-13T06:04:39;15.80;99.90
16297;DHT22;8256;56.144;13.394;2022-09-13T06:07:25;15.90;99.90
16297;DHT22;8256;56.144;13.394;2022-09-13T06:10:10;15.90;99.90
16297;DHT22;8256;56.144;13.394;2022-09-13T06:12:56;15.90;99.90
16297;DHT22;8256;56.144;13.394;2022-09-13T06:15:42;15.90;99.90
16297;DHT22;8256;56.144;13.394;2022-09-13T06:18:28;15.90;99.90
16297;DHT22;8256;56.144;13.394;2022-09-13T06:21:17;16.00;99.90
16297;DHT22;8256;56.144;13.394;2022-09-13T06:24:04;16.00;99.90
16297;DHT22;8256;56.144;13.394;2022-09-13T06:26:50;16.00;99.90
16297;DHT22;8256;56.144;13.394;2022-09-13T06:29:36;16.00;99.90
16297;DHT22;8256;56.144;13.394;2022-09-13T06:32:22;16.00;99.90
16297;DHT22;8256;56.144;13.394;2022-09-13T06:35:07;16.00;99.90
16297;DHT22;8256;56.144;13.394;2022-09-13T06:37:54;16.00;99.90
16297;DHT22;8256;56.144;13.394;2022-09-13T06:40:41;16.10;99.90
16297;DHT22;8256;56.144;13.394;2022-09-13T06:43:27;16.10;99.90
16297;DHT22;8256;56.144;13.394;2022-09-13T06:46:14;16.10;99.90
16297;DHT22;8256;56.144;13.394;2022-09-13T06:49:01;16.20;99.90
16297;DHT22;8256;56.144;13.394;2022-09-13T06:51:48;16.20;99.90
16297;DHT22;8256;56.144;13.394;2022-09-13T06:54:34;16.40;99.90
16297;DHT22;8256;56.144;13.394;2022-09-13T06:57:19;16.40;99.90
16297;DHT22;8256;56.144;13.394;2022-09-13T07:00:05;16.40;99.90
16297;DHT22;8256;56.144;13.394;2022-09-13T07:02:51;16.40;99.90
16297;DHT22;8256;56.144;13.394;2022-09-13T07:05:37;16.50;99.90
16297;DHT22;8256;56.144;13.394;2022-09-13T07:08:23;16.50;99.90
16297;DHT22;8256;56.144;13.394;2022-09-13T07:11:09;16.60;99.90
16297;DHT22;8256;56.144;13.394;2022-09-13T07:13:56;16.70;99.90
16297;DHT22;8256;56.144;13.394;2022-09-13T07:16:42;16.80;99.90
16297;DHT22;8256;56.144;13.394;2022-09-13T07:19:28;16.80;99.90
16297;DHT22;8256;56.144;13.394;2022-09-13T07:22:14;16.80;99.90
16297;DHT22;8256;56.144;13.394;2022-09-13T07:25:00;16.80;99.90
16297;DHT22;8256;56.144;13.394;2022-09-13T07:27:46;16.90;99.90
16297;DHT22;8256;56.144;13.394;2022-09-13T07:30:32;17.00;99.90
16297;DHT22;8256;56.144;13.394;2022-09-13T07:33:18;17.10;99.90
16297;DHT22;8256;56.144;13.394;2022-09-13T07:36:04;17.30;99.90
16297;DHT22;8256;56.144;13.394;2022-09-13T07:38:51;17.40;99.90
16297;DHT22;8256;56.144;13.394;2022-09-13T07:41:37;17.60;99.90
16297;DHT22;8256;56.144;13.394;2022-09-13T07:44:23;17.90;99.90
16297;DHT22;8256;56.144;13.394;2022-09-13T07:47:09;17.90;99.90
16297;DHT22;8256;56.144;13.394;2022-09-13T07:49:55;17.90;99.90
16297;DHT22;8256;56.144;13.394;2022-09-13T07:52:40;18.00;99.90
16297;DHT22;8256;56.144;13.394;2022-09-13T07:55:26;18.20;99.90
16297;DHT22;8256;56.144;13.394;2022-09-13T07:58:12;18.60;99.90
16297;DHT22;8256;56.144;13.394;2022-09-13T08:01:05;18.70;99.90
16297;DHT22;8256;56.144;13.394;2022-09-13T08:03:52;18.50;99.90
16297;DHT22;8256;56.144;13.394;2022-09-13T08:06:39;18.30;99.90
16297;DHT22;8256;56.144;13.394;2022-09-13T08:09:25;17.90;99.90
16297;DHT22;8256;56.144;13.394;2022-09-13T08:12:11;17.70;99.90
16297;DHT22;8256;56.144;13.394;2022-09-13T08:14:57;17.90;99.90
16297;DHT22;8256;56.144;13.394;2022-09-13T08:17:43;17.70;99.90
16297;DHT22;8256;56.144;13.394;2022-09-13T08:20:28;17.50;99.90
16297;DHT22;8256;56.144;13.394;2022-09-13T08:23:14;17.40;99.90
16297;DHT22;8256;56.144;13.394;2022-09-13T08:26:00;17.30;99.90
16297;DHT22;8256;56.144;13.394;2022-09-13T08:28:47;17.50;99.90
16297;DHT22;8256;56.144;13.394;2022-09-13T08:31:33;17.40;99.90
16297;DHT22;8256;56.144;13.394;2022-09-13T08:34:19;17.20;99.90
16297;DHT22;8256;56.144;13.394;2022-09-13T08:37:05;17.30;99.90
16297;DHT22;8256;56.144;13.394;2022-09-13T08:39:51;16.80;99.90
16297;DHT22;8256;56.144;13.394;2022-09-13T08:42:45;16.80;99.90
16297;DHT22;8256;56.144;13.394;2022-09-13T08:45:33;16.50;99.90
16297;DHT22;8256;56.144;13.394;2022-09-13T08:48:19;16.30;99.90
16297;DHT22;8256;56.144;13.394;2022-09-13T08:51:09;16.00;99.90
16297;DHT22;8256;56.144;13.394;2022-09-13T08:53:59;16.00;99.90
16297;DHT22;8256;56.144;13.394;2022-09-13T09:05:22;16.00;99.90
16297;DHT22;8256;56.144;13.394;2022-09-13T09:08:14;15.90;99.90
16297;DHT22;8256;56.144;13.394;2022-09-13T09:11:02;16.10;99.90
16297;DHT22;8256;56.144;13.394;2022-09-13T09:13:51;16.20;99.90
16297;DHT22;8256;56.144;13.394;2022-09-13T09:16:48;16.50;99.90
16297;DHT22;8256;56.144;13.394;2022-09-13T09:19:36;16.70;99.90
16297;DHT22;8256;56.144;13.394;2022-09-13T09:22:25;16.70;99.90
16297;DHT22;8256;56.144;13.394;2022-09-13T09:25:13;16.70;99.90
16297;DHT22;8256;56.144;13.394;2022-09-13T09:27:59;16.70;99.90
16297;DHT22;8256;56.144;13.394;2022-09-13T09:30:59;16.60;99.90
16297;DHT22;8256;56.144;13.394;2022-09-13T09:34:01;16.80;99.90
16297;DHT22;8256;56.144;13.394;2022-09-13T09:36:55;17.10;99.90
16297;DHT22;8256;56.144;13.394;2022-09-13T09:39:43;17.50;99.90
16297;DHT22;8256;56.144;13.394;2022-09-13T09:42:29;17.70;99.90
16297;DHT22;8256;56.144;13.394;2022-09-13T09:45:22;17.70;99.90
16297;DHT22;8256;56.144;13.394;2022-09-13T09:48:11;17.80;99.90
16297;DHT22;8256;56.144;13.394;2022-09-13T09:50:58;17.40;99.90
16297;DHT22;8256;56.144;13.394;2022-09-13T09:53:46;17.50;99.90
16297;DHT22;8256;56.144;13.394;2022-09-13T09:56:33;17.40;99.90
16297;DHT22;8256;56.144;13.394;2022-09-13T09:59:29;17.30;99.90
16297;DHT22;8256;56.144;13.394;2022-09-13T10:02:17;17.40;99.90
16297;DHT22;8256;56.144;13.394;2022-09-13T10:05:04;17.40;99.90
16297;DHT22;8256;56.144;13.394;2022-09-13T10:07:58;17.20;99.90
16297;DHT22;8256;56.144;13.394;2022-09-13T10:10:51;17.20;99.90
16297;DHT22;8256;56.144;13.394;2022-09-13T10:13:38;17.10;99.90
16297;DHT22;8256;56.144;13.394;2022-09-13T10:16:41;17.30;99.90
16297;DHT22;8256;56.144;13.394;2022-09-13T10:19:27;17.30;99.90
16297;DHT22;8256;56.144;13.394;2022-09-13T10:22:13;17.10;99.90
16297;DHT22;8256;56.144;13.394;2022-09-13T10:25:12;17.00;99.90
16297;DHT22;8256;56.144;13.394;2022-09-13T10:27:58;17.10;99.90
16297;DHT22;8256;56.144;13.394;2022-09-13T10:30:45;17.20;99.90
16297;DHT22;8256;56.144;13.394;2022-09-13T10:36:22;17.60;99.90
16297;DHT22;8256;56.144;13.394;2022-09-13T10:39:13;17.60;99.90
16297;DHT22;8256;56.144;13.394;2022-09-13T10:42:06;17.80;99.90
16297;DHT22;8256;56.144;13.394;2022-09-13T10:45:08;17.80;99.90
16297;DHT22;8256;56.144;13.394;2022-09-13T10:48:05;17.90;99.90
16297;DHT22;8256;56.144;13.394;2022-09-13T10:50:59;18.00;99.90
16297;DHT22;8256;56.144;13.394;2022-09-13T10:53:46;17.90;99.90
16297;DHT22;8256;56.144;13.394;2022-09-13T10:56:32;18.00;99.90
16297;DHT22;8256;56.144;13.394;2022-09-13T10:59:25;17.90;99.90
16297;DHT22;8256;56.144;13.394;2022-09-13T11:10:47;18.00;99.90
